COW2 weather

Otway
British Columbia, Canada

Public forecast

Using degrees Celsius for public forecast. Weather courtesy of forecast.io.

METAR (pilot weather report)

Closest report is Prince George Airport, 6.6 nm (12.2 km) SE. Retrieved 2019/08/22 16:00 UTC (43 minutes ago):

CYXS 221600Z AUTO 23005KT 160V270 9SM CLR 12/05 A3005 RMK SLP188 DENSITY ALT 2300FT

TAF (pilot weather forecast)

Closest forecast is Prince George Airport, 6.6 nm (12.2 km) SE. Retrieved 2019/08/22 13:42 UTC (3 hours ago):

TAF TAF CYXS 221238Z 2213/2301 20008KT P6SM FEW140 FM221600 20008KT P6SM SCT050 TEMPO 2216/2301 BKN050 RMK FCST BASED ON AUTO OBS. NXT FCST BY 221900Z